Time;durP1;ratioP1;P1;durP2;ratioP2;P2;SDS_P1;SDS_P2;PMS_P1;PMS_P2;Temp;Humidity;BMP_temperature;BMP_pressure;BME280_temperature;BME280_humidity;BME280_pressure;Samples;Min_cycle;Max_cycle;Signal;HPM_P1;HPM_P2
2022/01/21 00:00:32;;;;;;;12.63;2.42;;;;;;;1.82;93.39;102783.81;10493034;28;20055;-64
2022/01/21 00:05:54;;;;;;;12.77;1.98;;;;;;;1.74;93.25;102781.22;10490311;28;20063;-63
2022/01/21 00:11:15;;;;;;;14.52;1.80;;;;;;;1.74;93.86;102781.22;10492666;28;20047;-64
2022/01/21 00:16:39;;;;;;;15.57;1.90;;;;;;;1.81;93.28;102771.81;10490614;28;20438;-64
2022/01/21 00:33:24;;;;;;;7.97;1.80;;;;;;;1.91;94.99;102779.50;10491458;28;20622;-64
2022/01/21 00:38:46;;;;;;;14.27;2.10;;;;;;;2.00;94.80;102779.53;10495371;28;20498;-64
2022/01/21 00:44:08;;;;;;;8.98;1.50;;;;;;;2.01;95.41;102779.53;10493932;28;20512;-65
2022/01/21 00:49:30;;;;;;;15.77;1.70;;;;;;;2.01;95.70;102770.97;10491771;28;20106;-64
2022/01/21 00:54:51;;;;;;;12.43;1.88;;;;;;;2.00;96.21;102748.69;10489804;28;20059;-64
2022/01/21 01:00:14;;;;;;;14.70;1.75;;;;;;;2.05;96.81;102744.38;10497805;28;20074;-64
2022/01/21 01:05:36;;;;;;;9.38;1.60;;;;;;;2.00;97.14;102757.25;10498621;28;20052;-65
2022/01/21 01:11:18;;;;;;;16.70;2.08;;;;;;;1.93;97.35;102752.09;10498786;28;20045;-64
2022/01/21 01:22:24;;;;;;;9.52;1.63;;;;;;;1.87;98.20;102759.81;10504067;28;20051;-65
2022/01/21 01:27:48;;;;;;;11.90;1.90;;;;;;;1.87;98.33;102757.25;10512335;28;20499;-64
2022/01/21 01:33:13;;;;;;;8.55;1.73;;;;;;;1.90;97.82;102775.22;10496670;28;20048;-65
2022/01/21 01:49:41;;;;;;;8.35;1.60;;;;;;;2.21;96.09;102779.53;10497879;28;19932;-64
2022/01/21 01:55:03;;;;;;;8.57;1.38;;;;;;;2.26;95.17;102773.53;10496914;28;20052;-65
2022/01/21 02:00:25;;;;;;;11.88;1.52;;;;;;;2.24;95.33;102784.69;10498175;28;20398;-65
2022/01/21 02:05:46;;;;;;;13.07;1.60;;;;;;;2.13;96.67;102783.84;10495641;28;20052;-65
2022/01/21 02:11:08;;;;;;;8.73;1.67;;;;;;;2.16;97.30;102782.13;10486662;28;20483;-64
2022/01/21 02:16:44;;;;;;;16.25;1.92;;;;;;;2.11;97.58;102767.56;10513928;28;20049;-64
2022/01/21 02:22:06;;;;;;;11.20;1.70;;;;;;;2.08;98.23;102768.41;10496691;28;20051;-64
2022/01/21 02:27:27;;;;;;;12.68;1.83;;;;;;;2.07;98.37;102770.97;10495630;28;20478;-64
2022/01/21 02:32:53;;;;;;;11.70;1.67;;;;;;;2.13;98.33;102770.97;10495706;28;20059;-64
2022/01/21 02:38:15;;;;;;;9.37;1.73;;;;;;;2.09;99.14;102784.69;10492642;28;20044;-64
2022/01/21 02:43:37;;;;;;;9.63;1.30;;;;;;;1.99;100.00;102780.41;10499568;28;20772;-65
2022/01/21 02:48:59;;;;;;;7.15;1.52;;;;;;;2.01;99.85;102781.25;10495776;28;20117;-65
2022/01/21 02:54:21;;;;;;;9.48;1.27;;;;;;;2.06;99.85;102792.38;10499553;28;20060;-64
2022/01/21 02:59:43;;;;;;;6.78;1.25;;;;;;;2.10;99.43;102781.25;10500689;28;20642;-64
2022/01/21 03:05:11;;;;;;;9.43;1.40;;;;;;;2.11;99.42;102793.25;10468007;28;20048;-64
2022/01/21 03:10:33;;;;;;;11.52;1.80;;;;;;;2.14;99.66;102785.56;10494015;28;20474;-64
2022/01/21 03:15:55;;;;;;;12.25;1.55;;;;;;;2.21;98.48;102790.72;10490592;28;20056;-65
2022/01/21 03:21:17;;;;;;;14.35;1.83;;;;;;;2.17;98.74;102776.13;10500542;28;20503;-65
2022/01/21 03:26:39;;;;;;;11.07;1.58;;;;;;;2.18;98.85;102784.72;10487864;28;20571;-65
2022/01/21 03:32:00;;;;;;;15.63;1.50;;;;;;;2.08;100.00;102788.13;10483840;28;20055;-64
2022/01/21 03:37:22;;;;;;;17.75;1.70;;;;;;;2.10;99.84;102786.41;10507783;28;20052;-64
2022/01/21 03:42:44;;;;;;;11.23;1.30;;;;;;;2.10;99.40;102791.56;10540238;28;20044;-64
2022/01/21 03:48:05;;;;;;;11.50;1.40;;;;;;;2.07;99.55;102776.97;10510971;28;20060;-64
2022/01/21 03:53:27;;;;;;;13.27;1.52;;;;;;;2.05;99.10;102777.81;10483766;28;20041;-64
2022/01/21 03:58:49;;;;;;;4.05;1.13;;;;;;;1.98;100.00;102787.22;10485879;28;20057;-64
2022/01/21 04:04:11;;;;;;;6.93;1.20;;;;;;;2.05;100.00;102793.25;10491990;28;20402;-64
2022/01/21 04:09:32;;;;;;;11.10;1.48;;;;;;;2.00;100.00;102776.97;10491359;28;20047;-64
2022/01/21 04:14:56;;;;;;;5.57;1.27;;;;;;;2.10;98.98;102779.56;10492450;28;20062;-64
2022/01/21 04:20:18;;;;;;;8.85;1.33;;;;;;;2.04;99.83;102783.81;10492394;28;20048;-64
2022/01/21 04:25:40;;;;;;;11.70;1.45;;;;;;;2.10;99.32;102794.13;10479964;28;20048;-64
2022/01/21 04:31:02;;;;;;;13.15;1.70;;;;;;;2.16;99.81;102799.28;10499711;28;20049;-64
2022/01/21 04:36:24;;;;;;;14.43;1.67;;;;;;;2.23;99.01;102808.72;10500065;28;20055;-64
2022/01/21 04:52:38;;;;;;;18.30;1.60;;;;;;;2.14;100.00;102808.72;10503185;28;20041;-65
2022/01/21 04:58:01;;;;;;;13.52;2.00;;;;;;;2.12;100.00;102805.28;10487093;28;20506;-65
2022/01/21 05:03:22;;;;;;;11.82;2.08;;;;;;;2.18;100.00;102788.13;10498797;28;20564;-65
2022/01/21 05:08:52;;;;;;;12.48;1.95;;;;;;;2.21;100.00;102805.28;10458155;28;20056;-65
2022/01/21 05:14:19;;;;;;;13.65;1.92;;;;;;;2.19;100.00;102796.69;10481149;28;20053;-65
2022/01/21 05:19:41;;;;;;;11.30;1.60;;;;;;;2.22;100.00;102796.69;10502692;28;20040;-65
2022/01/21 05:25:03;;;;;;;15.82;2.00;;;;;;;2.17;100.00;102775.28;10503798;28;20067;-65
2022/01/21 05:30:25;;;;;;;13.18;1.40;;;;;;;2.28;100.00;102776.97;10484878;28;20055;-64
2022/01/21 05:35:47;;;;;;;11.40;1.83;;;;;;;2.29;100.00;102777.84;10496714;28;20056;-65
2022/01/21 05:41:09;;;;;;;16.50;1.85;;;;;;;2.28;100.00;102771.00;10499104;28;20045;-65
2022/01/21 05:52:16;;;;;;;12.32;1.90;;;;;;;2.27;100.00;102787.28;10485772;28;20047;-65
2022/01/21 05:57:38;;;;;;;12.65;1.73;;;;;;;2.32;100.00;102788.16;10485377;28;20498;-65
2022/01/21 06:02:59;;;;;;;11.48;1.63;;;;;;;2.35;100.00;102777.84;10497100;28;20052;-65
2022/01/21 06:08:21;;;;;;;11.27;1.85;;;;;;;2.34;100.00;102765.81;10496165;28;20056;-65
2022/01/21 06:13:45;;;;;;;13.73;1.95;;;;;;;2.34;100.00;102779.56;10502133;28;20043;-65
2022/01/21 06:19:07;;;;;;;18.08;1.92;;;;;;;2.32;100.00;102786.41;10497590;28;20544;-65
2022/01/21 06:24:29;;;;;;;10.60;1.77;;;;;;;2.33;100.00;102784.72;10495603;28;20056;-65
2022/01/21 06:29:51;;;;;;;13.80;1.75;;;;;;;2.41;100.00;102783.00;10503257;28;20044;-65
2022/01/21 06:35:13;;;;;;;11.60;1.63;;;;;;;2.38;100.00;102788.13;10496604;28;20056;-64
2022/01/21 06:40:35;;;;;;;10.32;1.40;;;;;;;2.48;100.00;102784.69;10466577;28;20106;-65
2022/01/21 06:46:00;;;;;;;13.00;1.38;;;;;;;2.53;100.00;102821.59;10494628;28;20052;-65
2022/01/21 06:51:22;;;;;;;9.68;1.40;;;;;;;2.65;100.00;102819.00;10495613;28;20051;-65
2022/01/21 06:56:44;;;;;;;9.45;1.10;;;;;;;2.62;100.00;102824.19;10492917;28;20458;-65
2022/01/21 07:02:05;;;;;;;9.48;1.23;;;;;;;2.71;100.00;102819.84;10494860;28;20048;-65
2022/01/21 07:07:27;;;;;;;8.80;1.10;;;;;;;2.80;100.00;102819.88;10494568;28;20506;-64
2022/01/21 07:12:48;;;;;;;8.30;1.15;;;;;;;2.80;100.00;102821.56;10494663;28;20052;-65
2022/01/21 07:18:10;;;;;;;7.38;0.95;;;;;;;2.77;100.00;102819.88;10494474;28;20067;-65
2022/01/21 07:23:32;;;;;;;12.45;1.52;;;;;;;2.81;100.00;102825.84;10493728;28;20071;-65
2022/01/21 07:28:55;;;;;;;10.82;1.10;;;;;;;2.80;100.00;102829.28;10494948;28;20056;-64
2022/01/21 07:34:16;;;;;;;6.05;1.40;;;;;;;2.77;100.00;102844.72;10491108;28;20041;-64
2022/01/21 07:39:38;;;;;;;9.68;1.48;;;;;;;2.82;100.00;102853.31;10494075;28;20052;-64
2022/01/21 07:45:00;;;;;;;8.43;1.58;;;;;;;2.92;100.00;102858.47;10491966;28;20052;-64
2022/01/21 07:50:22;;;;;;;12.23;1.70;;;;;;;2.92;100.00;102861.88;10493574;28;20053;-64
2022/01/21 07:55:44;;;;;;;12.35;1.70;;;;;;;2.89;100.00;102861.91;10485604;28;20049;-65
2022/01/21 08:01:06;;;;;;;13.57;1.90;;;;;;;2.91;100.00;102855.03;10497961;28;20036;-64
2022/01/21 08:06:28;;;;;;;12.93;1.60;;;;;;;2.94;100.00;102839.56;10477380;28;20494;-64
2022/01/21 08:11:51;;;;;;;11.20;2.03;;;;;;;2.97;100.00;102831.84;10471388;28;20395;-64
2022/01/21 08:17:13;;;;;;;13.95;2.47;;;;;;;3.01;100.00;102836.16;10479686;28;20053;-64
2022/01/21 08:22:35;;;;;;;20.60;2.78;;;;;;;2.97;100.00;102829.28;10477717;28;20049;-64
2022/01/21 08:27:56;;;;;;;15.32;2.22;;;;;;;3.02;100.00;102824.09;10482180;28;20135;-64
2022/01/21 08:33:18;;;;;;;12.27;2.85;;;;;;;3.05;100.00;102842.13;10467919;28;20049;-64
2022/01/21 08:38:40;;;;;;;10.43;2.85;;;;;;;3.10;100.00;102843.84;10471913;28;20057;-64
2022/01/21 08:44:02;;;;;;;14.98;2.22;;;;;;;3.21;100.00;102838.66;10475027;28;20112;-64
2022/01/21 08:49:25;;;;;;;9.27;1.92;;;;;;;3.26;100.00;102842.94;10460735;28;20049;-64
2022/01/21 08:54:49;;;;;;;11.50;2.50;;;;;;;3.23;100.00;102853.25;10470149;28;20062;-64
2022/01/21 09:00:18;;;;;;;18.10;2.58;;;;;;;3.24;100.00;102854.97;10476966;28;20053;-64
2022/01/21 09:05:40;;;;;;;12.15;3.15;;;;;;;3.25;100.00;102846.38;10480304;28;20052;-64
2022/01/21 09:11:04;;;;;;;23.67;2.33;;;;;;;3.37;100.00;102838.63;10472117;28;20048;-64
2022/01/21 09:16:26;;;;;;;13.48;2.20;;;;;;;3.42;100.00;102841.19;10469489;28;20406;-64
2022/01/21 09:21:51;;;;;;;19.48;2.13;;;;;;;3.44;100.00;102844.59;10482766;28;20095;-64
2022/01/21 09:27:13;;;;;;;17.70;2.50;;;;;;;3.49;100.00;102851.47;10470784;28;20049;-64
2022/01/21 09:32:35;;;;;;;12.95;2.28;;;;;;;3.49;100.00;102845.44;10472689;28;20054;-65
2022/01/21 09:37:56;;;;;;;9.02;2.10;;;;;;;3.57;100.00;102843.69;10483624;28;20052;-64
2022/01/21 09:43:38;;;;;;;13.73;2.53;;;;;;;3.60;100.00;102841.97;10488903;28;20047;-64
2022/01/21 09:54:47;;;;;;;7.97;1.70;;;;;;;3.69;100.00;102848.81;10491879;28;20041;-66
2022/01/21 10:00:09;;;;;;;17.02;2.10;;;;;;;3.79;100.00;102848.75;10472466;28;20048;-66
2022/01/21 10:05:32;;;;;;;20.02;2.28;;;;;;;4.06;100.00;102856.38;10489450;28;20053;-64
2022/01/21 10:10:53;;;;;;;15.45;2.60;;;;;;;4.24;100.00;102848.50;10496586;28;20048;-63
2022/01/21 10:16:16;;;;;;;12.85;2.08;;;;;;;4.41;100.00;102862.16;10497494;28;20052;-63
2022/01/21 10:21:43;;;;;;;10.63;1.58;;;;;;;4.61;100.00;102862.88;10494988;28;20505;-63
2022/01/21 10:27:06;;;;;;;17.05;1.85;;;;;;;4.72;100.00;102857.59;10490334;28;20045;-64
2022/01/21 10:32:39;;;;;;;14.43;2.00;;;;;;;4.85;100.00;102869.53;10471621;28;20041;-63
2022/01/21 10:38:30;;;;;;;11.85;1.90;;;;;;;4.99;100.00;102857.34;10486452;28;20403;-63
2022/01/21 10:44:05;;;;;;;14.90;2.05;;;;;;;5.01;99.60;102865.97;10509324;28;20048;-63
2022/01/21 10:49:27;;;;;;;17.48;1.98;;;;;;;5.16;99.30;102876.16;10509610;28;20048;-63
2022/01/21 10:54:51;;;;;;;12.85;1.70;;;;;;;5.14;99.44;102877.88;10494468;28;20051;-64
2022/01/21 11:00:13;;;;;;;23.92;2.33;;;;;;;5.11;100.00;102871.91;10464502;28;20055;-63
2022/01/21 11:05:40;;;;;;;19.90;1.83;;;;;;;5.16;100.00;102859.81;10492426;28;20099;-64
2022/01/21 11:11:02;;;;;;;14.23;2.13;;;;;;;5.29;99.29;102857.06;10488514;28;20041;-64
2022/01/21 11:16:25;;;;;;;9.43;1.50;;;;;;;5.29;100.00;102862.22;10487534;28;20056;-64
2022/01/21 11:22:07;;;;;;;13.63;1.80;;;;;;;5.37;99.08;102842.34;10485837;28;20352;-65
2022/01/21 11:27:29;;;;;;;14.13;1.73;;;;;;;5.35;99.06;102862.16;10485641;28;20052;-64
2022/01/21 11:32:51;;;;;;;7.90;1.45;;;;;;;5.46;97.28;102860.31;10492979;28;20044;-64
2022/01/21 11:38:13;;;;;;;19.17;2.35;;;;;;;5.49;98.39;102851.66;10492952;28;20064;-64
2022/01/21 11:43:36;;;;;;;18.52;2.85;;;;;;;5.45;98.49;102852.59;10490220;28;20037;-64
2022/01/21 11:48:58;;;;;;;18.08;2.47;;;;;;;5.46;99.00;102842.22;10464465;28;20473;-64
2022/01/21 11:54:25;;;;;;;12.35;2.58;;;;;;;5.53;99.35;102837.81;10464648;28;20044;-64
2022/01/21 12:00:17;;;;;;;27.30;2.85;;;;;;;5.53;99.50;102840.41;10492905;28;20522;-63
2022/01/21 12:05:28;;;;;;;14.23;2.60;;;;;;;5.56;99.15;102832.63;10500555;28;20111;-63
2022/01/21 12:10:50;;;;;;;11.30;2.25;;;;;;;5.58;99.10;102820.53;10498925;28;20044;-64
2022/01/21 12:16:24;;;;;;;18.75;2.42;;;;;;;5.58;98.70;102813.63;10492879;28;20048;-63
2022/01/21 12:21:51;;;;;;;14.33;2.20;;;;;;;5.65;98.49;102804.91;10482629;28;20041;-63
2022/01/21 12:27:14;;;;;;;27.95;2.85;;;;;;;5.64;97.99;102804.91;10501682;28;20059;-63
2022/01/21 12:32:58;;;;;;;19.73;2.50;;;;;;;5.66;99.64;102808.34;10481071;28;20048;-63
2022/01/21 12:43:56;;;;;;;22.95;2.97;;;;;;;5.75;99.23;102804.75;10492611;28;20059;-63
2022/01/21 12:49:51;;;;;;;19.85;2.75;;;;;;;5.77;99.31;102799.59;10464999;28;20451;-64
2022/01/21 13:01:10;;;;;;;18.73;2.63;;;;;;;5.92;99.27;102783.88;10500304;28;20084;-63
2022/01/21 13:06:36;;;;;;;15.07;2.55;;;;;;;5.95;99.63;102774.31;10495549;28;20056;-64
2022/01/21 13:11:59;;;;;;;22.60;2.53;;;;;;;5.99;98.92;102770.81;10494063;28;20049;-64
2022/01/21 13:17:21;;;;;;;15.13;2.03;;;;;;;6.01;99.21;102778.53;10489031;28;20051;-63
2022/01/21 13:22:45;;;;;;;15.85;2.30;;;;;;;6.09;99.38;102771.53;10490344;28;20684;-64
2022/01/21 13:28:07;;;;;;;12.15;1.75;;;;;;;6.11;99.47;102759.44;10499547;28;20060;-64
2022/01/21 13:33:30;;;;;;;6.30;1.50;;;;;;;6.11;100.00;102754.25;10498019;28;20047;-63
2022/01/21 13:39:08;;;;;;;11.55;1.50;;;;;;;6.14;99.84;102760.22;10498874;28;20052;-63
2022/01/21 13:44:34;;;;;;;6.70;1.20;;;;;;;6.13;100.00;102752.47;10478942;28;20139;-63
2022/01/21 13:49:58;;;;;;;4.30;0.93;;;;;;;6.10;99.92;102748.19;10499012;28;20088;-63
2022/01/21 13:55:41;;;;;;;6.35;1.15;;;;;;;6.04;100.00;102752.63;10497704;28;20049;-64
2022/01/21 14:01:09;;;;;;;8.68;1.02;;;;;;;6.07;100.00;102757.75;10497641;28;20060;-62
2022/01/21 14:06:31;;;;;;;5.05;1.48;;;;;;;6.12;100.00;102750.75;10485656;28;20052;-62
2022/01/21 14:11:53;;;;;;;11.65;1.90;;;;;;;6.12;100.00;102750.75;10457815;28;20057;-63
2022/01/21 14:17:15;;;;;;;10.52;1.70;;;;;;;6.15;100.00;102736.06;10472568;28;20048;-63
2022/01/21 14:22:47;;;;;;;12.55;2.20;;;;;;;6.09;100.00;102727.53;10497169;28;20498;-63
2022/01/21 14:28:09;;;;;;;22.23;2.88;;;;;;;6.15;100.00;102710.16;10496373;28;20426;-63
2022/01/21 14:33:39;;;;;;;11.93;1.90;;;;;;;6.22;100.00;102710.91;10494246;28;20398;-63
2022/01/21 14:39:12;;;;;;;14.27;2.35;;;;;;;6.18;100.00;102694.59;10474315;28;20060;-63
2022/01/21 14:44:38;;;;;;;10.13;2.10;;;;;;;6.07;100.00;102698.22;10496034;28;20048;-63
2022/01/21 14:50:14;;;;;;;10.07;1.83;;;;;;;6.08;100.00;102697.34;10496618;28;20526;-63
2022/01/21 14:55:38;;;;;;;15.93;2.15;;;;;;;6.08;100.00;102698.19;10495302;28;20091;-63
2022/01/21 15:01:06;;;;;;;15.00;2.40;;;;;;;6.01;100.00;102685.38;10485046;28;20055;-63
2022/01/21 15:06:30;;;;;;;18.95;2.92;;;;;;;6.04;100.00;102682.72;10472763;28;20053;-63
2022/01/21 15:14:22;;;;;;;11.38;2.50;;;;;;;6.01;100.00;102685.38;10477790;28;20045;-64
2022/01/21 15:17:55;;;;;;;19.30;3.70;;;;;;;6.08;100.00;102677.47;10486713;28;20052;-63
2022/01/21 15:23:18;;;;;;;19.65;3.70;;;;;;;6.07;100.00;102672.34;10494410;28;20048;-63
2022/01/21 15:28:40;;;;;;;15.60;3.33;;;;;;;6.11;100.00;102666.25;10509048;28;20416;-62
2022/01/21 15:34:04;;;;;;;19.42;3.53;;;;;;;6.13;100.00;102648.91;10488724;28;20104;-63
2022/01/21 15:39:26;;;;;;;13.98;3.03;;;;;;;6.20;100.00;102640.19;10463778;28;20052;-64
2022/01/21 15:44:48;;;;;;;11.38;2.40;;;;;;;6.23;100.00;102633.19;10468874;28;20065;-64
2022/01/21 15:50:11;;;;;;;15.55;2.40;;;;;;;6.29;100.00;102622.75;10493816;28;20056;-66
2022/01/21 15:55:33;;;;;;;11.32;1.95;;;;;;;6.31;100.00;102612.34;10494037;28;20049;-66
2022/01/21 16:00:55;;;;;;;17.98;2.33;;;;;;;6.33;100.00;102620.94;10480999;28;20079;-64
2022/01/21 16:06:17;;;;;;;10.95;1.95;;;;;;;6.35;100.00;102607.06;10493499;28;20094;-64
2022/01/21 16:11:39;;;;;;;5.53;1.80;;;;;;;6.36;100.00;102600.19;10485513;28;20460;-64
2022/01/21 16:17:02;;;;;;;5.57;0.98;;;;;;;6.39;100.00;102600.97;10501911;28;20078;-64
2022/01/21 16:22:23;;;;;;;8.38;1.30;;;;;;;6.39;100.00;102610.47;10480949;28;20049;-66
2022/01/21 16:27:46;;;;;;;5.57;1.23;;;;;;;6.41;100.00;102594.03;10473139;28;20418;-64
2022/01/21 16:33:08;;;;;;;8.35;1.08;;;;;;;6.46;100.00;102597.38;10474003;28;20045;-65
2022/01/21 16:38:30;;;;;;;7.68;1.50;;;;;;;6.44;100.00;102598.28;10482099;28;20048;-64
2022/01/21 16:43:52;;;;;;;5.57;1.10;;;;;;;6.46;100.00;102604.28;10469145;28;20067;-65
2022/01/21 16:49:14;;;;;;;6.03;1.13;;;;;;;6.45;100.00;102597.41;10470348;28;20490;-64
2022/01/21 16:54:35;;;;;;;6.10;1.40;;;;;;;6.50;100.00;102608.53;10471303;28;20082;-65
2022/01/21 16:59:58;;;;;;;7.63;1.45;;;;;;;6.54;100.00;102610.19;10471090;28;20062;-64
2022/01/21 17:05:20;;;;;;;8.75;1.90;;;;;;;6.50;100.00;102604.19;10480122;28;20047;-64
2022/01/21 17:10:42;;;;;;;9.10;2.00;;;;;;;6.52;100.00;102610.19;10491867;28;20118;-63
2022/01/21 17:16:03;;;;;;;6.07;1.80;;;;;;;6.55;100.00;102602.38;10477672;28;20052;-62
2022/01/21 17:21:25;;;;;;;8.82;1.80;;;;;;;6.55;100.00;102601.53;10482736;28;20073;-64
2022/01/21 17:26:47;;;;;;;4.90;1.63;;;;;;;6.53;100.00;102598.13;10484509;28;20049;-64
2022/01/21 17:32:09;;;;;;;4.10;1.48;;;;;;;6.55;100.00;102580.81;10468165;28;20045;-64
2022/01/21 17:37:31;;;;;;;3.95;1.60;;;;;;;6.57;100.00;102585.06;10462926;28;20490;-65
2022/01/21 17:42:55;;;;;;;5.72;1.80;;;;;;;6.57;100.00;102594.56;10477842;28;20513;-63
2022/01/21 17:48:17;;;;;;;4.25;1.40;;;;;;;6.58;100.00;102591.97;10490267;28;20053;-64
2022/01/21 17:53:39;;;;;;;4.10;1.60;;;;;;;6.61;100.00;102604.84;10473510;28;20041;-64
2022/01/21 17:59:02;;;;;;;5.28;1.80;;;;;;;6.62;100.00;102613.47;10470316;28;20170;-64
2022/01/21 18:04:24;;;;;;;9.00;1.73;;;;;;;6.63;100.00;102610.00;10481784;28;20041;-64
2022/01/21 18:09:46;;;;;;;4.75;1.85;;;;;;;6.63;100.00;102610.00;10473304;28;20044;-64
2022/01/21 18:15:07;;;;;;;5.13;1.67;;;;;;;6.62;100.00;102608.28;10477403;28;20563;-64
2022/01/21 18:20:29;;;;;;;10.13;2.35;;;;;;;6.59;100.00;102609.22;10480896;28;20048;-64
2022/01/21 18:25:53;;;;;;;8.88;1.88;;;;;;;6.63;100.00;102610.00;10480837;28;20064;-64
2022/01/21 18:31:15;;;;;;;8.75;1.85;;;;;;;6.63;100.00;102610.00;10475384;28;20129;-65
2022/01/21 18:36:37;;;;;;;9.05;1.80;;;;;;;6.63;100.00;102604.81;10491712;28;20181;-65
2022/01/21 18:41:59;;;;;;;7.47;1.70;;;;;;;6.60;100.00;102615.22;10480850;28;20055;-65
2022/01/21 18:47:25;;;;;;;7.43;1.50;;;;;;;6.67;100.00;102616.81;10482277;28;20049;-64
2022/01/21 18:52:49;;;;;;;8.93;1.85;;;;;;;6.68;100.00;102615.06;10473611;28;20045;-64
2022/01/21 18:58:11;;;;;;;5.53;1.83;;;;;;;6.62;100.00;102622.09;10483050;28;20541;-63
2022/01/21 19:03:33;;;;;;;9.48;1.67;;;;;;;6.64;100.00;102627.25;10495701;28;20160;-64
2022/01/21 19:08:57;;;;;;;5.93;1.65;;;;;;;6.64;100.00;102627.25;10494247;28;20064;-64
2022/01/21 19:14:18;;;;;;;3.50;1.73;;;;;;;6.62;100.00;102627.28;10494231;28;20056;-65
2022/01/21 19:19:40;;;;;;;4.80;1.02;;;;;;;6.60;100.00;102621.28;10453454;28;20057;-64
2022/01/21 19:25:10;;;;;;;3.78;1.25;;;;;;;6.63;100.00;102625.53;10469523;28;20059;-64
2022/01/21 19:30:32;;;;;;;5.07;1.27;;;;;;;6.64;100.00;102622.06;10493806;28;20056;-64
2022/01/21 19:35:57;;;;;;;11.63;1.73;;;;;;;6.61;100.00;102632.47;10491614;28;20059;-64
2022/01/21 19:41:18;;;;;;;11.00;1.27;;;;;;;6.63;100.00;102625.53;10492914;28;20057;-64
2022/01/21 19:46:41;;;;;;;10.85;1.70;;;;;;;6.63;100.00;102636.75;10492300;28;20052;-64
2022/01/21 19:52:04;;;;;;;11.90;1.73;;;;;;;6.65;100.00;102649.69;10500330;28;20063;-66
2022/01/21 19:57:36;;;;;;;11.00;1.30;;;;;;;6.67;100.00;102637.56;10490682;28;20418;-65
2022/01/21 20:19:24;;;;;;;6.40;1.17;;;;;;;6.68;100.00;102630.63;10469499;28;20063;-65
2022/01/21 20:24:48;;;;;;;10.32;1.45;;;;;;;6.61;100.00;102624.72;10481963;28;20049;-65
2022/01/21 20:30:10;;;;;;;10.60;1.63;;;;;;;6.63;100.00;102625.53;10473171;28;20045;-66
2022/01/21 20:35:35;;;;;;;5.95;1.77;;;;;;;6.65;100.00;102628.97;10468573;28;20052;-64
2022/01/21 20:41:48;;;;;;;8.23;1.30;;;;;;;6.63;100.00;102620.34;10473159;28;20056;-64
2022/01/21 20:46:42;;;;;;;5.97;1.13;;;;;;;6.63;100.00;102615.19;10471565;28;20060;-65
2022/01/21 20:52:04;;;;;;;6.85;1.30;;;;;;;6.59;100.00;102618.69;10467520;28;20037;-65
2022/01/21 20:57:26;;;;;;;3.38;1.08;;;;;;;6.62;100.00;102618.66;10463389;28;20045;-64
2022/01/21 21:02:48;;;;;;;4.55;1.10;;;;;;;6.61;100.00;102627.31;10466658;28;20048;-65
2022/01/21 21:08:10;;;;;;;6.05;1.27;;;;;;;6.64;100.00;102628.09;10472570;28;20489;-65
2022/01/21 21:13:33;;;;;;;4.45;1.50;;;;;;;6.65;100.00;102624.63;10470783;28;20521;-64
2022/01/21 22:27:15;;;;;;;6.38;1.20;;;;;;;6.83;100.00;102606.09;10498441;28;20070;-65
2022/01/21 23:00:35;;;;;;;7.80;1.23;;;;;;;6.89;100.00;102609.41;10489041;28;20094;-65
2022/01/21 23:05:59;;;;;;;2.58;0.93;;;;;;;6.94;100.00;102617.97;10503145;28;20054;-64
2022/01/21 23:11:21;;;;;;;3.50;1.30;;;;;;;6.94;100.00;102628.34;10499034;28;20040;-65
2022/01/21 23:16:42;;;;;;;6.00;1.30;;;;;;;6.91;100.00;102628.38;10467290;28;20506;-65
2022/01/21 23:22:04;;;;;;;3.03;1.40;;;;;;;6.92;100.00;102630.09;10464210;28;20061;-65
2022/01/21 23:27:36;;;;;;;6.30;1.10;;;;;;;6.98;100.00;102632.59;10478513;28;20513;-66
2022/01/21 23:33:07;;;;;;;2.38;1.17;;;;;;;6.96;100.00;102623.09;10479883;28;20051;-65
2022/01/21 23:44:11;;;;;;;3.80;1.00;;;;;;;7.00;100.00;102625.59;10492300;28;20056;-65
2022/01/21 23:49:39;;;;;;;2.30;1.27;;;;;;;7.05;100.00;102626.34;10493646;28;20498;-65
2022/01/21 23:55:00;;;;;;;2.20;1.08;;;;;;;7.08;100.00;102631.50;10492168;28;20048;-65
